Time;durP1;ratioP1;P1;durP2;ratioP2;P2;SDS_P1;SDS_P2;PMS_P1;PMS_P2;Temp;Humidity;BMP_temperature;BMP_pressure;BME280_temperature;BME280_humidity;BME280_pressure;Samples;Min_cycle;Max_cycle;Signal;HPM_P1;HPM_P2
2022/05/12 00:01:17;;;;;;;4.63;1.15;;;;;;;;;;4937965;29;20106;-86
2022/05/12 00:03:43;;;;;;;4.97;1.60;;;;;;;;;;4937746;29;20043;-86
2022/05/12 00:06:09;;;;;;;8.43;1.23;;;;;;;;;;4921538;29;20043;-86
2022/05/12 00:08:35;;;;;;;1.38;1.00;;;;;;;;;;4921492;29;20063;-86
2022/05/12 00:11:02;;;;;;;7.57;1.30;;;;;;;;;;4921445;29;20051;-85
2022/05/12 00:13:28;;;;;;;4.28;1.40;;;;;;;;;;4921345;29;20535;-85
2022/05/12 00:15:55;;;;;;;3.40;1.30;;;;;;;;;;4937479;29;20126;-86
2022/05/12 00:18:21;;;;;;;4.10;1.10;;;;;;;;;;4921307;29;20052;-86
2022/05/12 00:20:47;;;;;;;6.65;1.30;;;;;;;;;;4937133;29;20051;-86
2022/05/12 00:23:14;;;;;;;1.85;1.05;;;;;;;;;;4937705;29;20051;-86
2022/05/12 00:25:41;;;;;;;6.72;2.17;;;;;;;;;;4920889;29;20043;-86
2022/05/12 00:28:08;;;;;;;1.70;1.10;;;;;;;;;;4920552;29;20044;-86
2022/05/12 00:30:34;;;;;;;1.10;0.80;;;;;;;;;;4922131;29;20219;-86
2022/05/12 00:33:00;;;;;;;2.50;0.98;;;;;;;;;;4921296;29;20036;-85
2022/05/12 00:35:26;;;;;;;2.17;1.08;;;;;;;;;;4920980;29;20044;-86
2022/05/12 00:37:52;;;;;;;2.60;1.20;;;;;;;;;;4921742;29;20039;-86
2022/05/12 00:40:19;;;;;;;5.57;1.23;;;;;;;;;;4920900;29;20063;-87
2022/05/12 00:42:54;;;;;;;1.20;0.98;;;;;;;;;;4937207;29;20066;-89
2022/05/12 00:45:20;;;;;;;1.15;0.90;;;;;;;;;;4936996;29;20110;-88
2022/05/12 00:47:46;;;;;;;2.13;1.35;;;;;;;;;;4938239;29;20051;-87
2022/05/12 00:50:12;;;;;;;2.45;0.95;;;;;;;;;;4936532;29;20183;-87
2022/05/12 00:52:38;;;;;;;2.35;1.10;;;;;;;;;;4938044;29;20066;-87
2022/05/12 00:55:10;;;;;;;1.85;1.20;;;;;;;;;;4937331;29;20126;-88
2022/05/12 00:57:38;;;;;;;1.15;0.95;;;;;;;;;;4921899;29;20122;-87
2022/05/12 01:00:08;;;;;;;4.07;1.50;;;;;;;;;;4936432;29;20043;-88
2022/05/12 01:02:34;;;;;;;2.75;1.10;;;;;;;;;;4936731;29;20078;-88
2022/05/12 01:05:01;;;;;;;3.97;0.90;;;;;;;;;;4936915;29;20381;-88
2022/05/12 01:07:27;;;;;;;2.28;1.17;;;;;;;;;;4936676;29;20424;-87
2022/05/12 01:09:54;;;;;;;2.28;1.20;;;;;;;;;;4920583;29;20036;-87
2022/05/12 01:12:20;;;;;;;1.85;1.00;;;;;;;;;;4920441;29;20103;-88
2022/05/12 01:14:46;;;;;;;3.53;1.30;;;;;;;;;;4937236;29;20043;-88
2022/05/12 01:17:12;;;;;;;1.02;0.98;;;;;;;;;;4920719;29;20071;-88
2022/05/12 01:19:40;;;;;;;2.38;1.20;;;;;;;;;;4921606;29;20047;-87
2022/05/12 01:22:08;;;;;;;3.70;1.45;;;;;;;;;;4938156;29;20047;-87
2022/05/12 01:24:36;;;;;;;6.50;1.23;;;;;;;;;;4936225;29;20060;-86
2022/05/12 01:27:21;;;;;;;1.40;1.27;;;;;;;;;;4936242;29;20055;-89
2022/05/12 01:29:52;;;;;;;7.03;1.40;;;;;;;;;;4920622;29;20051;-87
2022/05/12 01:32:20;;;;;;;1.95;1.70;;;;;;;;;;4935950;29;20047;-88
2022/05/12 01:34:47;;;;;;;1.60;1.50;;;;;;;;;;4937266;29;20091;-89
2022/05/12 01:37:13;;;;;;;4.05;1.50;;;;;;;;;;4935586;29;20087;-87
2022/05/12 01:39:39;;;;;;;3.85;1.60;;;;;;;;;;4919989;29;20063;-86
2022/05/12 01:42:06;;;;;;;5.10;1.75;;;;;;;;;;4935778;29;20055;-87
2022/05/12 01:44:32;;;;;;;5.60;2.50;;;;;;;;;;4935739;29;20043;-86
2022/05/12 01:46:58;;;;;;;2.85;1.88;;;;;;;;;;4935633;29;20058;-87
2022/05/12 01:49:25;;;;;;;4.85;2.08;;;;;;;;;;4919895;29;20091;-88
2022/05/12 01:51:55;;;;;;;5.10;1.95;;;;;;;;;;4935705;29;20488;-87
2022/05/12 01:54:21;;;;;;;5.30;1.70;;;;;;;;;;4935613;29;20055;-88
2022/05/12 01:56:47;;;;;;;2.40;1.75;;;;;;;;;;4919953;29;20441;-86
2022/05/12 01:59:13;;;;;;;3.28;1.75;;;;;;;;;;4937446;29;20489;-87
2022/05/12 02:01:39;;;;;;;4.20;2.05;;;;;;;;;;4919961;29;20058;-86
2022/05/12 02:04:05;;;;;;;7.03;1.90;;;;;;;;;;4936544;29;20094;-87
2022/05/12 02:06:32;;;;;;;5.85;2.50;;;;;;;;;;4935240;29;20167;-85
2022/05/12 02:08:59;;;;;;;7.15;2.45;;;;;;;;;;4919596;29;20075;-85
2022/05/12 02:11:25;;;;;;;4.78;2.20;;;;;;;;;;4935093;29;20055;-85
2022/05/12 02:13:51;;;;;;;7.78;2.42;;;;;;;;;;4919342;29;20047;-85
2022/05/12 02:16:17;;;;;;;2.65;2.10;;;;;;;;;;4919315;29;20056;-86
2022/05/12 02:18:44;;;;;;;7.50;2.42;;;;;;;;;;4935360;29;20138;-85
2022/05/12 02:21:10;;;;;;;3.80;2.38;;;;;;;;;;4935065;29;20055;-85
2022/05/12 02:23:36;;;;;;;4.65;2.17;;;;;;;;;;4919688;29;20050;-85
2022/05/12 02:26:03;;;;;;;3.55;2.42;;;;;;;;;;4919661;29;20074;-85
2022/05/12 02:28:29;;;;;;;6.72;2.88;;;;;;;;;;4919351;29;20167;-85
2022/05/12 02:30:55;;;;;;;5.38;2.50;;;;;;;;;;4919062;29;20047;-86
2022/05/12 02:33:21;;;;;;;11.57;2.92;;;;;;;;;;4919227;29;20043;-86
2022/05/12 02:35:47;;;;;;;16.52;3.17;;;;;;;;;;4919186;29;20082;-85
2022/05/12 02:38:14;;;;;;;6.88;2.80;;;;;;;;;;4919157;29;20047;-85
2022/05/12 02:40:40;;;;;;;2.65;2.10;;;;;;;;;;4918925;29;20394;-85
2022/05/12 02:43:23;;;;;;;5.10;2.55;;;;;;;;;;4918937;29;20048;-85
2022/05/12 02:45:53;;;;;;;7.68;2.78;;;;;;;;;;4934815;29;20059;-85
2022/05/12 02:48:20;;;;;;;7.43;3.20;;;;;;;;;;4935190;29;20556;-86
2022/05/12 02:50:46;;;;;;;10.43;2.72;;;;;;;;;;4921591;29;20410;-86
2022/05/12 02:53:12;;;;;;;6.25;2.90;;;;;;;;;;4923185;29;20547;-85
2022/05/12 02:55:38;;;;;;;9.90;3.17;;;;;;;;;;4922894;29;20058;-85
2022/05/12 02:58:05;;;;;;;9.95;3.20;;;;;;;;;;4938687;29;20080;-85
2022/05/12 03:00:33;;;;;;;10.90;3.15;;;;;;;;;;4939809;29;20063;-85
2022/05/12 03:03:02;;;;;;;11.38;3.28;;;;;;;;;;4940058;29;20058;-85
2022/05/12 03:05:28;;;;;;;8.20;2.95;;;;;;;;;;4922782;29;20409;-86
2022/05/12 03:07:54;;;;;;;8.57;3.75;;;;;;;;;;4922529;29;20043;-86
2022/05/12 03:10:23;;;;;;;11.63;3.15;;;;;;;;;;4939165;29;20059;-85
2022/05/12 03:12:49;;;;;;;8.05;3.47;;;;;;;;;;4938379;29;20488;-86
2022/05/12 03:15:15;;;;;;;7.90;4.15;;;;;;;;;;4939808;29;20051;-86
2022/05/12 03:17:45;;;;;;;8.00;3.33;;;;;;;;;;4940126;29;20450;-85
2022/05/12 03:20:13;;;;;;;7.72;3.22;;;;;;;;;;4922439;29;20046;-85
2022/05/12 03:22:39;;;;;;;13.68;3.80;;;;;;;;;;4938753;29;20070;-86
2022/05/12 03:25:06;;;;;;;8.20;3.55;;;;;;;;;;4939581;29;20046;-86
2022/05/12 03:27:32;;;;;;;7.72;3.80;;;;;;;;;;4938137;29;20087;-86
2022/05/12 03:29:58;;;;;;;8.88;3.33;;;;;;;;;;4922182;29;20044;-86
2022/05/12 03:32:24;;;;;;;10.73;3.80;;;;;;;;;;4922336;29;20052;-86
2022/05/12 03:34:50;;;;;;;11.65;4.40;;;;;;;;;;4938327;29;20050;-86
2022/05/12 03:37:17;;;;;;;11.85;4.38;;;;;;;;;;4922037;29;20051;-86
2022/05/12 03:39:44;;;;;;;10.38;3.53;;;;;;;;;;4938242;29;20060;-86
2022/05/12 03:42:15;;;;;;;9.27;4.15;;;;;;;;;;4922398;29;20409;-86
2022/05/12 03:44:53;;;;;;;5.40;4.10;;;;;;;;;;4921953;29;20043;-86
2022/05/12 03:47:27;;;;;;;12.25;3.90;;;;;;;;;;4939319;29;20452;-86
2022/05/12 03:49:55;;;;;;;13.50;4.53;;;;;;;;;;4921773;29;20084;-86
2022/05/12 03:52:21;;;;;;;12.05;5.57;;;;;;;;;;4938431;29;20056;-86
2022/05/12 03:54:48;;;;;;;8.48;4.47;;;;;;;;;;4937633;29;20055;-86
2022/05/12 03:57:15;;;;;;;12.88;4.30;;;;;;;;;;4937844;29;20130;-86
2022/05/12 03:59:41;;;;;;;8.35;4.75;;;;;;;;;;4937505;29;20524;-86
2022/05/12 04:02:08;;;;;;;10.80;4.25;;;;;;;;;;4937520;29;20075;-86
2022/05/12 04:04:35;;;;;;;12.27;4.97;;;;;;;;;;4922248;29;20056;-86
2022/05/12 04:07:01;;;;;;;8.88;4.43;;;;;;;;;;4921562;29;20044;-86
2022/05/12 04:09:27;;;;;;;21.40;4.72;;;;;;;;;;4921714;29;20052;-86
2022/05/12 04:11:53;;;;;;;11.75;5.13;;;;;;;;;;4938534;29;20044;-86
2022/05/12 04:14:19;;;;;;;9.65;4.82;;;;;;;;;;4938260;29;20130;-86
2022/05/12 04:16:45;;;;;;;10.80;5.35;;;;;;;;;;4937054;29;20043;-86
2022/05/12 04:19:12;;;;;;;16.55;5.28;;;;;;;;;;4937775;29;20468;-86
2022/05/12 04:21:38;;;;;;;9.43;4.28;;;;;;;;;;4921073;29;20047;-86
2022/05/12 04:24:06;;;;;;;14.40;5.28;;;;;;;;;;4921115;29;20047;-86
2022/05/12 04:26:32;;;;;;;11.52;4.32;;;;;;;;;;4938091;29;20066;-87
2022/05/12 04:28:59;;;;;;;16.60;5.38;;;;;;;;;;4921280;29;20048;-87
2022/05/12 04:31:25;;;;;;;16.10;5.03;;;;;;;;;;4921164;29;20048;-88
2022/05/12 04:36:40;;;;;;;19.13;5.45;;;;;;;;;;4937099;29;20074;-87
2022/05/12 04:39:06;;;;;;;13.32;5.25;;;;;;;;;;4922909;29;20043;-87
2022/05/12 04:41:33;;;;;;;10.93;4.63;;;;;;;;;;4922249;29;20134;-87
2022/05/12 04:43:59;;;;;;;12.68;5.22;;;;;;;;;;4938412;29;20043;-87
2022/05/12 04:46:25;;;;;;;25.73;6.40;;;;;;;;;;4922638;29;20436;-88
2022/05/12 04:48:52;;;;;;;14.35;5.70;;;;;;;;;;4936764;29;20106;-89
2022/05/12 04:51:18;;;;;;;16.70;5.43;;;;;;;;;;4921618;29;20051;-89
2022/05/12 04:53:44;;;;;;;10.18;5.22;;;;;;;;;;4936619;29;20540;-88
2022/05/12 04:56:10;;;;;;;9.57;5.40;;;;;;;;;;4937718;29;20047;-88
2022/05/12 04:58:37;;;;;;;15.73;5.78;;;;;;;;;;4936546;29;20043;-88
2022/05/12 05:01:04;;;;;;;10.82;5.05;;;;;;;;;;4920615;29;20135;-88
2022/05/12 05:03:30;;;;;;;11.00;5.40;;;;;;;;;;4921044;29;20044;-88
2022/05/12 05:05:56;;;;;;;11.68;5.55;;;;;;;;;;4920653;29;20048;-88
2022/05/12 05:08:23;;;;;;;10.20;5.18;;;;;;;;;;4936022;29;20044;-88
2022/05/12 05:10:51;;;;;;;10.15;6.10;;;;;;;;;;4920432;29;20501;-88
2022/05/12 05:13:18;;;;;;;10.02;5.43;;;;;;;;;;4920292;29;20050;-88
2022/05/12 05:15:45;;;;;;;14.98;5.60;;;;;;;;;;4936588;29;20501;-88
2022/05/12 05:18:12;;;;;;;9.40;5.43;;;;;;;;;;4920636;29;20559;-88
2022/05/12 05:20:38;;;;;;;8.18;5.30;;;;;;;;;;4920550;29;20524;-86
2022/05/12 05:23:04;;;;;;;14.27;6.38;;;;;;;;;;4921135;29;20043;-87
2022/05/12 05:25:33;;;;;;;8.63;5.40;;;;;;;;;;4935974;29;20535;-88
2022/05/12 05:28:00;;;;;;;11.63;5.45;;;;;;;;;;4920407;29;20464;-88
2022/05/12 05:30:27;;;;;;;8.55;5.20;;;;;;;;;;4920040;29;20054;-87
2022/05/12 05:32:54;;;;;;;12.57;5.55;;;;;;;;;;4936523;29;20095;-88
2022/05/12 05:35:20;;;;;;;9.70;5.53;;;;;;;;;;4920053;29;20054;-87
2022/05/12 05:37:49;;;;;;;6.90;5.07;;;;;;;;;;4920020;29;20051;-88
2022/05/12 05:40:16;;;;;;;10.75;4.95;;;;;;;;;;4919877;29;20134;-87
2022/05/12 05:42:43;;;;;;;12.55;5.10;;;;;;;;;;4919905;29;20054;-87
2022/05/12 05:45:15;;;;;;;18.58;5.28;;;;;;;;;;4920145;29;20079;-88
2022/05/12 05:47:44;;;;;;;6.90;4.70;;;;;;;;;;4920070;29;20132;-88
2022/05/12 05:50:10;;;;;;;11.65;5.25;;;;;;;;;;4919723;29;20043;-88
2022/05/12 05:55:21;;;;;;;12.63;4.80;;;;;;;;;;4935793;29;20047;-87
2022/05/12 05:57:47;;;;;;;14.00;5.50;;;;;;;;;;4919851;29;20103;-88
2022/05/12 06:00:13;;;;;;;10.75;4.50;;;;;;;;;;4919831;29;20438;-88
2022/05/12 06:02:39;;;;;;;10.13;4.72;;;;;;;;;;4919729;29;20079;-87
2022/05/12 06:05:06;;;;;;;9.93;4.43;;;;;;;;;;4919282;29;20051;-87
2022/05/12 06:07:34;;;;;;;11.77;4.68;;;;;;;;;;4920140;29;20047;-87
2022/05/12 06:10:01;;;;;;;8.70;3.95;;;;;;;;;;4935066;29;20501;-87
2022/05/12 06:12:29;;;;;;;10.80;3.40;;;;;;;;;;4919328;29;20138;-87
2022/05/12 06:14:56;;;;;;;12.52;4.22;;;;;;;;;;4920580;29;20044;-88
2022/05/12 06:17:22;;;;;;;16.42;4.57;;;;;;;;;;4919487;29;20139;-88
2022/05/12 06:19:50;;;;;;;11.02;4.28;;;;;;;;;;4920582;29;20385;-88
2022/05/12 06:22:19;;;;;;;6.18;3.35;;;;;;;;;;4919477;29;20044;-87
2022/05/12 06:24:47;;;;;;;4.60;3.60;;;;;;;;;;4918899;29;20560;-87
2022/05/12 06:27:13;;;;;;;12.18;3.63;;;;;;;;;;4920068;29;20044;-87
2022/05/12 06:29:41;;;;;;;6.32;3.53;;;;;;;;;;4936480;29;20044;-87
2022/05/12 06:32:08;;;;;;;10.60;3.03;;;;;;;;;;4919017;29;20052;-87
2022/05/12 06:34:34;;;;;;;6.80;3.42;;;;;;;;;;4919257;29;20433;-87
2022/05/12 06:37:00;;;;;;;13.82;2.85;;;;;;;;;;4936389;29;20099;-87
2022/05/12 06:39:29;;;;;;;8.57;3.35;;;;;;;;;;4935962;29;20516;-87
2022/05/12 06:41:56;;;;;;;11.45;2.78;;;;;;;;;;4919628;29;20484;-87
2022/05/12 06:44:25;;;;;;;15.98;2.97;;;;;;;;;;4919868;29;20413;-86
2022/05/12 06:46:51;;;;;;;7.70;2.85;;;;;;;;;;4920927;29;20051;-86
2022/05/12 06:49:18;;;;;;;7.72;2.83;;;;;;;;;;4920444;29;20048;-86
2022/05/12 06:51:45;;;;;;;5.63;2.72;;;;;;;;;;4921997;29;20429;-86
2022/05/12 06:54:11;;;;;;;4.97;3.10;;;;;;;;;;4921548;29;20051;-86
2022/05/12 06:56:37;;;;;;;12.00;3.20;;;;;;;;;;4920562;29;20044;-87
2022/05/12 06:59:03;;;;;;;9.70;2.90;;;;;;;;;;4937784;29;20048;-88
2022/05/12 07:01:29;;;;;;;11.45;2.95;;;;;;;;;;4920478;29;20048;-89
2022/05/12 07:03:57;;;;;;;7.65;2.42;;;;;;;;;;4936450;29;20054;-88
2022/05/12 07:06:23;;;;;;;8.13;2.85;;;;;;;;;;4934945;29;20048;-88
2022/05/12 07:08:49;;;;;;;4.88;2.38;;;;;;;;;;4934962;29;20051;-87
2022/05/12 07:11:15;;;;;;;11.43;3.15;;;;;;;;;;4934806;29;20048;-89
2022/05/12 07:13:41;;;;;;;7.78;3.05;;;;;;;;;;4935148;29;20048;-88
2022/05/12 07:16:07;;;;;;;5.78;1.90;;;;;;;;;;4918955;29;20094;-88
2022/05/12 07:18:34;;;;;;;12.13;2.65;;;;;;;;;;4918699;29;20156;-87
2022/05/12 07:26:35;;;;;;;;;;;13.80;99.90;;;;;;4934858;29;20083;-88
2022/05/12 07:29:07;;;;;;;8.20;2.45;;;13.70;99.90;;;;;;4919508;29;19927;-89
2022/05/12 07:31:33;;;;;;;4.15;2.50;;;;;;;;;;4918592;29;20552;-87
2022/05/12 07:34:00;;;;;;;11.25;2.53;;;;;;;;;;4918597;29;20083;-90
2022/05/12 07:36:30;;;;;;;8.30;2.20;;;13.90;99.90;;;;;;4919993;29;20105;-87
2022/05/12 07:38:56;;;;;;;12.88;2.92;;;;;;;;;;4939139;29;20040;-90
2022/05/12 07:41:23;;;;;;;6.88;2.83;;;14.20;99.90;;;;;;4937968;29;20059;-87
2022/05/12 07:43:51;;;;;;;11.43;3.42;;;;;;;;;;4937712;29;20624;-88
2022/05/12 07:46:18;;;;;;;11.70;2.47;;;;;;;;;;4921576;29;20501;-89
2022/05/12 07:48:44;;;;;;;8.07;2.30;;;;;;;;;;4939017;29;20048;-88
2022/05/12 07:51:10;;;;;;;8.05;2.30;;;;;;;;;;4938977;29;20051;-88
2022/05/12 07:53:37;;;;;;;12.05;4.43;;;;;;;;;;4937906;29;20056;-89
2022/05/12 07:56:07;;;;;;;9.73;2.20;;;;;;;;;;4937741;29;20067;-87
2022/05/12 07:58:33;;;;;;;9.23;3.50;;;;;;;;;;4938338;29;20048;-88
2022/05/12 08:00:59;;;;;;;7.10;2.75;;;;;;;;;;4937412;29;20059;-87
2022/05/12 08:03:26;;;;;;;10.82;3.00;;;;;;;;;;4921487;29;20048;-90
2022/05/12 08:05:53;;;;;;;4.97;2.15;;;;;;;;;;4937209;29;20052;-88
2022/05/12 08:08:19;;;;;;;5.50;2.17;;;;;;;;;;4921242;29;20099;-87
2022/05/12 08:10:45;;;;;;;7.45;2.75;;;;;;;;;;4937126;29;20205;-88
2022/05/12 08:13:17;;;;;;;4.28;1.80;;;;;;;;;;4921389;29;20039;-89
2022/05/12 08:15:46;;;;;;;6.00;1.90;;;14.80;99.90;;;;;;4921654;29;20052;-88
2022/05/12 08:18:15;;;;;;;7.15;2.00;;;;;;;;;;4921151;29;20040;-88
2022/05/12 08:20:41;;;;;;;7.47;1.98;;;;;;;;;;4921738;29;20091;-90
2022/05/12 08:23:07;;;;;;;12.43;2.17;;;;;;;;;;4921625;29;20050;-88
2022/05/12 08:25:33;;;;;;;4.43;2.55;;;;;;;;;;4921718;29;20063;-90
2022/05/12 08:27:59;;;;;;;6.40;2.55;;;;;;;;;;4920925;29;20044;-89
2022/05/12 08:30:25;;;;;;;7.10;2.30;;;;;;;;;;4937195;29;20110;-90
2022/05/12 08:32:51;;;;;;;9.63;2.40;;;;;;;;;;4921216;29;20138;-90
2022/05/12 08:35:18;;;;;;;3.92;2.13;;;;;;;;;;4937037;29;20046;-90
2022/05/12 08:37:44;;;;;;;7.45;2.33;;;;;;;;;;4921433;29;20513;-91
2022/05/12 08:41:01;;;;;;;6.80;2.03;;;15.40;99.90;;;;;;4936846;29;20419;-89
2022/05/12 08:43:41;;;;;;;5.03;1.90;;;15.60;99.90;;;;;;4904570;29;20609;-88
2022/05/12 08:46:10;;;;;;;10.27;2.72;;;15.30;99.90;;;;;;4920058;29;20062;-88
2022/05/12 08:48:41;;;;;;;3.80;1.50;;;15.70;99.90;;;;;;4918908;29;20051;-89
2022/05/12 08:51:08;;;;;;;3.78;1.55;;;;;;;;;;4904025;29;20609;-86
2022/05/12 08:53:45;;;;;;;6.78;1.65;;;15.50;99.90;;;;;;4919729;29;20047;-87
2022/05/12 08:56:13;;;;;;;7.95;2.45;;;15.60;99.90;;;;;;4935438;29;20481;-89
2022/05/12 08:58:41;;;;;;;11.98;1.67;;;15.60;99.90;;;;;;4935769;29;20191;-90
2022/05/12 09:01:17;;;;;;;6.78;1.63;;;15.50;99.90;;;;;;4903867;29;20571;-89
2022/05/12 09:04:04;;;;;;;5.93;1.77;;;15.50;99.90;;;;;;4904106;29;20456;-89
2022/05/12 09:06:56;;;;;;;5.47;1.63;;;15.70;99.90;;;;;;4903683;29;20047;-90
2022/05/12 09:09:42;;;;;;;8.05;1.88;;;15.80;99.90;;;;;;4919611;29;20051;-89
2022/05/12 09:12:17;;;;;;;7.00;1.83;;;;;;;;;;4903481;29;20059;-90
2022/05/12 09:14:52;;;;;;;7.85;2.10;;;15.80;99.90;;;;;;4903850;29;20138;-91
2022/05/12 09:17:22;;;;;;;3.83;1.63;;;16.00;99.90;;;;;;4911923;29;20401;-89
2022/05/12 09:19:48;;;;;;;6.80;1.65;;;;;;;;;;4920032;29;20047;-89
2022/05/12 09:22:14;;;;;;;4.15;1.40;;;;;;;;;;4919736;29;20043;-88
2022/05/12 09:24:41;;;;;;;10.27;1.95;;;16.10;99.90;;;;;;4936265;29;20067;-89
2022/05/12 09:27:07;;;;;;;2.53;1.55;;;;;;;;;;4920254;29;20064;-89
2022/05/12 09:29:46;;;;;;;4.80;1.98;;;16.30;99.90;;;;;;4935989;29;20452;-89
2022/05/12 09:32:13;;;;;;;6.65;1.50;;;;;;;;;;4935599;29;20563;-90
2022/05/12 09:34:43;;;;;;;2.97;1.50;;;;;;;;;;4919922;29;20044;-88
2022/05/12 09:37:16;;;;;;;5.45;1.60;;;16.20;99.90;;;;;;4920068;29;20060;-90
2022/05/12 09:39:46;;;;;;;3.37;1.63;;;16.40;99.90;;;;;;4919852;29;20059;-91
2022/05/12 09:42:37;;;;;;;6.80;1.65;;;16.40;99.90;;;;;;4935949;29;20360;-91
2022/05/12 09:45:04;;;;;;;2.10;1.00;;;16.20;99.90;;;;;;4935750;29;20048;-88
2022/05/12 09:47:32;;;;;;;7.38;2.47;;;16.60;99.90;;;;;;4920129;29;20048;-90
2022/05/12 09:50:21;;;;;;;8.50;1.35;;;16.50;99.90;;;;;;4937458;29;20044;-92
2022/05/12 09:52:57;;;;;;;4.30;1.63;;;;;;;;;;4919834;29;20054;-92
2022/05/12 09:55:32;;;;;;;5.70;1.48;;;16.60;99.90;;;;;;4936691;29;20086;-90
2022/05/12 09:57:58;;;;;;;4.72;1.52;;;;;;;;;;4935580;29;20126;-90
2022/05/12 10:00:41;;;;;;;5.07;1.52;;;16.60;99.90;;;;;;4935698;29;20138;-90
2022/05/12 10:09:23;;;;;;;6.45;1.98;;;16.60;99.90;;;;;;4938243;28;20059;-89
2022/05/12 10:11:53;;;;;;;4.82;1.10;;;;;;;;;;4938038;29;20082;-90
2022/05/12 10:14:42;;;;;;;1.52;1.20;;;16.80;99.90;;;;;;4922244;29;20043;-89
2022/05/12 10:17:23;;;;;;;3.40;1.35;;;16.80;99.90;;;;;;4937944;29;20059;-89
2022/05/12 10:19:50;;;;;;;2.63;1.48;;;;;;;;;;4922005;29;20867;-91
2022/05/12 10:22:30;;;;;;;4.18;1.67;;;16.40;99.90;;;;;;4922759;29;20059;-91
2022/05/12 10:25:08;;;;;;;4.18;1.23;;;;;;;;;;4937664;29;20143;-90
2022/05/12 10:28:02;;;;;;;1.98;1.35;;;16.60;99.90;;;;;;4922171;29;20121;-90
2022/05/12 10:30:49;;;;;;;5.20;1.57;;;16.70;99.90;;;;;;4937305;29;20134;-88
2022/05/12 10:33:25;;;;;;;12.38;1.92;;;16.40;99.90;;;;;;4937934;29;20194;-92
2022/05/12 10:36:06;;;;;;;3.58;1.52;;;16.50;99.90;;;;;;4937242;29;20101;-90
2022/05/12 10:38:49;;;;;;;2.95;1.33;;;16.60;99.90;;;;;;4921462;29;20047;-89
2022/05/12 10:41:22;;;;;;;1.67;1.08;;;16.70;99.90;;;;;;4927673;29;20052;-90
2022/05/12 10:44:22;;;;;;;1.80;1.30;;;16.60;99.90;;;;;;4900229;29;20048;-89
2022/05/12 10:46:54;;;;;;;7.65;1.50;;;;;;;;;;4900198;29;20296;-90
2022/05/12 10:49:27;;;;;;;6.25;1.23;;;16.80;99.90;;;;;;4900987;29;20099;-89
2022/05/12 10:51:56;;;;;;;2.83;1.75;;;;;;;;;;4916095;29;20413;-90
2022/05/12 10:54:28;;;;;;;3.75;1.20;;;;;;;;;;4915781;29;20135;-88
2022/05/12 10:57:13;;;;;;;7.32;1.40;;;17.00;99.90;;;;;;4917073;29;20044;-89
2022/05/12 11:00:08;;;;;;;2.08;1.15;;;16.90;99.90;;;;;;4900312;29;20052;-89
2022/05/12 11:02:47;;;;;;;3.33;2.08;;;17.00;99.90;;;;;;4900249;29;20051;-90
2022/05/12 11:05:13;;;;;;;2.35;1.27;;;;;;;;;;4915769;29;20088;-89
2022/05/12 11:07:44;;;;;;;3.60;1.15;;;17.30;99.90;;;;;;4900600;29;20052;-89
2022/05/12 11:10:35;;;;;;;1.65;1.02;;;17.20;99.90;;;;;;4916204;29;20043;-89
2022/05/12 11:13:11;;;;;;;1.60;1.00;;;17.30;99.90;;;;;;4903899;29;20059;-91
2022/05/12 11:15:56;;;;;;;5.43;1.50;;;17.30;99.90;;;;;;4904018;29;20048;-88
2022/05/12 11:18:33;;;;;;;5.82;1.40;;;17.40;99.90;;;;;;4903907;29;20044;-89
2022/05/12 11:21:11;;;;;;;3.95;1.13;;;17.10;99.90;;;;;;4903570;29;20493;-89
2022/05/12 11:24:11;;;;;;;1.30;1.00;;;17.40;99.90;;;;;;4919948;29;20044;-88
2022/05/12 11:26:58;;;;;;;2.28;1.42;;;17.30;99.90;;;;;;4920458;29;20052;-89
2022/05/12 11:29:48;;;;;;;4.57;1.60;;;17.30;99.90;;;;;;4919426;29;20044;-90
2022/05/12 11:32:17;;;;;;;1.95;1.10;;;;;;;;;;4904500;29;20477;-89
2022/05/12 11:34:49;;;;;;;1.42;1.25;;;17.10;99.90;;;;;;4919074;29;20045;-89
2022/05/12 11:37:38;;;;;;;7.00;1.88;;;17.20;99.90;;;;;;4903472;29;20048;-89
2022/05/12 11:40:04;;;;;;;6.53;1.40;;;;;;;;;;4909521;29;20203;-89
2022/05/12 11:45:50;;;;;;;3.97;1.58;;;17.40;99.90;;;;;;4916350;29;20043;-89
2022/05/12 11:48:45;;;;;;;3.33;1.40;;;17.50;99.90;;;;;;4925259;29;20068;-90
2022/05/12 11:51:18;;;;;;;3.22;1.50;;;17.60;99.90;;;;;;4922174;29;20050;-90
2022/05/12 11:54:03;;;;;;;1.73;1.10;;;17.80;99.90;;;;;;4922714;29;20055;-92
2022/05/12 11:56:36;;;;;;;3.00;1.60;;;;;;;;;;4922194;29;20051;-90
2022/05/12 11:59:33;;;;;;;2.08;1.23;;;17.90;99.90;;;;;;4923252;29;20044;-90
2022/05/12 12:02:29;;;;;;;3.65;1.20;;;17.70;99.90;;;;;;4922410;29;20047;-94
2022/05/12 12:05:00;;;;;;;3.90;1.38;;;17.60;99.90;;;;;;4922073;29;20477;-93
2022/05/12 12:07:35;;;;;;;2.33;1.20;;;;;;;;;;4939601;29;20110;-93
2022/05/12 12:10:11;;;;;;;1.40;1.30;;;18.00;99.90;;;;;;4925078;29;20051;-91
2022/05/12 12:12:43;;;;;;;3.35;1.60;;;18.10;99.90;;;;;;4925640;29;20051;-89
2022/05/12 12:18:28;;;;;;;10.35;1.88;;;18.50;99.90;;;;;;4942080;29;20055;-89
2022/05/12 12:20:57;;;;;;;4.63;1.45;;;18.30;99.90;;;;;;4940606;29;20103;-90
2022/05/12 12:23:24;;;;;;;5.90;2.10;;;;;;;;;;4939457;29;20058;-92
2022/05/12 12:26:25;;;;;;;7.00;1.70;;;18.50;99.90;;;;;;4939706;29;20422;-94
2022/05/12 12:29:09;;;;;;;2.90;1.40;;;18.50;99.90;;;;;;4939909;29;20055;-90
2022/05/12 12:31:50;;;;;;;;;;;18.50;99.90;;;;;;4924357;29;20047;-95
2022/05/12 12:34:51;;;;;;;6.68;1.52;;;18.60;99.90;;;;;;4924661;29;19922;-93
2022/05/12 12:37:41;;;;;;;1.38;1.10;;;18.60;99.90;;;;;;4939851;29;20488;-90
2022/05/12 12:40:37;;;;;;;5.43;1.63;;;18.50;99.90;;;;;;4923308;29;20527;-91
2022/05/12 12:43:49;;;;;;;3.20;1.40;;;18.60;99.90;;;;;;4924196;29;20075;-89
2022/05/12 12:46:25;;;;;;;4.60;1.27;;;18.20;99.90;;;;;;4939638;29;20054;-93
2022/05/12 12:49:14;;;;;;;2.58;1.20;;;18.20;99.90;;;;;;4939792;29;20056;-91
2022/05/12 12:51:40;;;;;;;4.07;1.20;;;18.60;99.90;;;;;;4939785;29;20083;-90
2022/05/12 12:57:16;;;;;;;2.63;1.23;;;18.80;99.90;;;;;;4937197;29;20044;-92
2022/05/12 13:00:06;;;;;;;1.95;1.08;;;18.40;99.90;;;;;;4936726;29;20054;-91
2022/05/12 13:02:40;;;;;;;4.32;1.60;;;18.70;99.90;;;;;;4921194;29;20086;-91
2022/05/12 13:05:11;;;;;;;1.40;0.93;;;18.70;99.90;;;;;;4936556;29;20441;-90
2022/05/12 13:07:41;;;;;;;1.33;1.02;;;18.70;99.90;;;;;;4921378;29;20513;-90
2022/05/12 13:10:16;;;;;;;1.23;1.20;;;18.80;99.90;;;;;;4920654;29;20048;-91
2022/05/12 13:12:51;;;;;;;3.50;1.30;;;18.90;99.90;;;;;;4920657;29;20043;-91
2022/05/12 13:15:20;;;;;;;4.40;1.40;;;19.10;99.90;;;;;;4920695;29;20404;-91
2022/05/12 13:17:57;;;;;;;5.00;1.98;;;19.10;99.90;;;;;;4920841;29;20087;-93
2022/05/12 13:20:34;;;;;;;3.25;1.17;;;18.90;99.90;;;;;;4921181;29;20042;-91
2022/05/12 13:23:06;;;;;;;4.43;1.70;;;18.70;99.90;;;;;;4921631;29;20089;-96
2022/05/12 13:25:40;;;;;;;4.25;1.67;;;18.60;99.90;;;;;;4937478;29;20052;-96
2022/05/12 13:28:40;;;;;;;3.03;1.02;;;18.70;99.90;;;;;;4921979;29;20055;-90
2022/05/12 13:31:21;;;;;;;3.85;1.75;;;18.90;99.90;;;;;;4903851;29;20060;-93
2022/05/12 13:34:19;;;;;;;2.22;1.30;;;18.60;99.90;;;;;;4903270;29;20054;-91
2022/05/12 13:36:53;;;;;;;3.53;1.33;;;18.50;99.90;;;;;;4904678;29;20501;-92
2022/05/12 13:39:41;;;;;;;5.40;1.65;;;18.50;99.90;;;;;;4903814;29;20532;-95
2022/05/12 13:42:07;;;;;;;5.03;1.45;;;;;;;;;;4919181;29;20055;-93
2022/05/12 13:44:36;;;;;;;2.50;1.10;;;;;;;;;;4903902;29;20043;-93
2022/05/12 13:47:05;;;;;;;1.88;1.08;;;18.50;99.90;;;;;;4903436;29;20044;-93
2022/05/12 13:49:39;;;;;;;3.90;1.58;;;18.60;99.90;;;;;;4903905;29;20052;-91
2022/05/12 13:52:13;;;;;;;3.58;1.35;;;18.80;99.90;;;;;;4903543;29;20110;-93
2022/05/12 13:54:58;;;;;;;5.22;1.35;;;18.40;99.90;;;;;;4919513;29;20063;-94
2022/05/12 13:57:40;;;;;;;2.90;1.80;;;18.20;99.90;;;;;;4902785;29;20059;-90
2022/05/12 14:00:23;;;;;;;7.18;1.88;;;17.90;99.90;;;;;;4903433;29;20040;-92
2022/05/12 14:02:55;;;;;;;2.22;1.42;;;18.30;99.90;;;;;;4903648;29;20090;-91
2022/05/12 14:05:26;;;;;;;3.83;1.40;;;18.50;99.90;;;;;;4903520;29;20082;-91
2022/05/12 14:08:04;;;;;;;2.53;1.73;;;18.30;99.90;;;;;;4908067;29;20062;-90
2022/05/12 14:10:44;;;;;;;2.78;1.27;;;18.40;99.90;;;;;;4936974;29;20113;-93
2022/05/12 14:19:26;;;;;;;6.55;1.67;;;;;;;;;;4937062;29;20048;-92
2022/05/12 14:21:58;;;;;;;4.10;1.45;;;18.00;99.90;;;;;;4919731;29;20055;-95
2022/05/12 14:24:27;;;;;;;2.85;1.02;;;18.10;99.90;;;;;;4921484;29;20083;-94
2022/05/12 14:26:53;;;;;;;3.65;1.50;;;;;;;;;;4921403;29;20055;-94
2022/05/12 14:29:19;;;;;;;3.10;1.75;;;;;;;;;;4919906;29;20386;-89
2022/05/12 14:31:50;;;;;;;1.98;1.30;;;18.00;99.90;;;;;;4935577;29;20058;-93
2022/05/12 14:34:19;;;;;;;2.30;1.40;;;18.10;99.90;;;;;;4921160;29;20477;-96
2022/05/12 14:36:48;;;;;;;6.35;1.05;;;18.10;99.90;;;;;;4920287;29;20106;-91
2022/05/12 14:39:16;;;;;;;5.38;1.85;;;18.10;99.90;;;;;;4919490;29;20084;-90
2022/05/12 14:41:42;;;;;;;5.82;1.67;;;;;;;;;;4936368;29;20079;-92
2022/05/12 14:44:08;;;;;;;4.90;1.70;;;;;;;;;;4919453;29;20131;-93
2022/05/12 14:46:43;;;;;;;5.13;1.92;;;18.40;99.90;;;;;;4919958;29;20133;-90
2022/05/12 14:49:13;;;;;;;6.85;1.80;;;18.10;99.90;;;;;;4919537;29;20042;-90
2022/05/12 14:51:48;;;;;;;5.07;1.77;;;;;;;;;;4919238;29;20047;-93
2022/05/12 14:54:23;;;;;;;3.65;1.52;;;;;;;;;;4920987;29;20056;-92